ADDS METAR Data

Data at: 1835 UTC 20 Jul 2018

METAR for:KBGR (Bangor Intl Arpt, ME, US)
Text:KBGR 201753Z 20006KT 10SM FEW070 30/14 A3016 RMK AO2 SLP210 T03000139 10300 20161 $
Temperature: 30.0°C ( 86°F)
Dewpoint: 13.9°C ( 57°F) [RH = 37%]
Pressure (altimeter):30.16 inches Hg (1021.4 mb) [Sea level pressure: 1021.0 mb]
Winds:from the SSW (200 degrees) at 7 MPH (6 knots; 3.1 m/s)
Visibility:10 or more sm (16+ km)
Ceiling:at least 12,000 feet AGL
Clouds: few clouds at 7000 feet AGL
QC Flag:SOME DATA ABOVE MAY BE INACCURATE!!!"$" is an indication the sensor requires maintenance.